createdAt,value
2022-11-24T00:01:12.950Z,4.70
2022-11-24T00:03:40.314Z,4.72
2022-11-24T00:06:15.234Z,4.67
2022-11-24T00:08:44.949Z,4.74
2022-11-24T00:11:17.963Z,4.66
2022-11-24T00:13:45.919Z,4.65
2022-11-24T00:16:17.531Z,4.62
2022-11-24T00:18:47.711Z,4.64
2022-11-24T00:21:16.944Z,4.68
2022-11-24T00:23:44.500Z,4.55
2022-11-24T00:26:15.816Z,4.50
2022-11-24T00:28:44.578Z,4.52
2022-11-24T00:31:19.222Z,4.59
2022-11-24T00:33:47.773Z,4.63
2022-11-24T00:36:16.940Z,4.50
2022-11-24T00:38:44.483Z,4.57
2022-11-24T00:41:12.096Z,4.61
2022-11-24T00:43:39.176Z,4.61
2022-11-24T00:46:06.411Z,4.69
2022-11-24T00:48:33.781Z,4.77
2022-11-24T00:51:03.431Z,4.71
2022-11-24T00:53:30.907Z,4.57
2022-11-24T00:55:58.544Z,4.67
2022-11-24T00:58:26.308Z,4.67
2022-11-24T01:00:53.434Z,4.69
2022-11-24T01:03:21.422Z,4.70
2022-11-24T01:05:48.925Z,4.66
2022-11-24T01:08:16.204Z,4.62
2022-11-24T01:10:43.542Z,4.54
2022-11-24T01:13:12.113Z,4.65
2022-11-24T01:15:39.673Z,4.63
2022-11-24T01:18:06.975Z,4.62
2022-11-24T01:20:34.025Z,4.59
2022-11-24T01:23:00.981Z,4.62
2022-11-24T01:25:28.363Z,4.58
2022-11-24T01:27:55.340Z,4.53
2022-11-24T01:30:23.107Z,4.52
2022-11-24T01:32:50.409Z,4.49
2022-11-24T01:35:17.520Z,4.55
2022-11-24T01:37:44.496Z,4.51
2022-11-24T01:40:12.278Z,4.59
2022-11-24T01:42:51.164Z,4.52
2022-11-24T01:45:28.545Z,4.46
2022-11-24T01:47:56.147Z,4.46
2022-11-24T01:50:23.972Z,4.53
2022-11-24T01:52:54.231Z,4.42
2022-11-24T01:55:25.793Z,4.43
2022-11-24T01:58:01.321Z,4.43
2022-11-24T02:00:28.449Z,4.42
2022-11-24T02:02:58.958Z,4.38
2022-11-24T02:05:28.337Z,4.35
2022-11-24T02:07:59.713Z,4.36
2022-11-24T02:10:27.071Z,4.30
2022-11-24T02:12:58.153Z,4.36
2022-11-24T02:15:25.515Z,4.40
2022-11-24T02:17:52.836Z,4.36
2022-11-24T02:20:20.041Z,4.41
2022-11-24T02:22:57.020Z,4.34
2022-11-24T02:25:49.116Z,4.41
2022-11-24T02:28:21.161Z,4.41
2022-11-24T02:30:50.299Z,4.37
2022-11-24T02:33:18.179Z,4.38
2022-11-24T02:35:45.188Z,4.35
2022-11-24T02:38:16.330Z,4.30
2022-11-24T02:40:46.989Z,4.21
2022-11-24T02:43:19.705Z,4.30
2022-11-24T02:45:47.125Z,4.27
2022-11-24T02:48:15.670Z,4.35
2022-11-24T02:50:42.763Z,4.28
2022-11-24T02:53:09.878Z,4.21
2022-11-24T02:55:37.200Z,4.16
2022-11-24T02:58:04.360Z,4.10
2022-11-24T03:00:31.431Z,4.07
2022-11-24T03:02:58.879Z,4.13
2022-11-24T03:05:25.924Z,4.20
2022-11-24T03:07:52.968Z,4.18
2022-11-24T03:10:20.301Z,4.18
2022-11-24T03:12:47.281Z,4.20
2022-11-24T03:15:14.350Z,4.18
2022-11-24T03:17:41.817Z,4.22
2022-11-24T03:20:09.687Z,4.16
2022-11-24T03:22:37.231Z,4.16
2022-11-24T03:25:05.352Z,3.99
2022-11-24T03:27:32.666Z,4.01
2022-11-24T03:29:59.646Z,3.94
2022-11-24T03:32:27.071Z,3.86
2022-11-24T03:34:54.055Z,3.91
2022-11-24T03:37:21.120Z,3.72
2022-11-24T03:39:48.745Z,3.88
2022-11-24T03:42:16.286Z,3.90
2022-11-24T03:44:43.286Z,3.81
2022-11-24T03:47:11.636Z,3.70
2022-11-24T03:49:39.134Z,3.75
2022-11-24T03:52:08.444Z,3.60
2022-11-24T03:54:36.052Z,3.48
2022-11-24T03:57:03.257Z,3.57
2022-11-24T03:59:30.314Z,3.67
2022-11-24T04:01:57.583Z,3.56
2022-11-24T04:04:25.139Z,3.52
2022-11-24T04:06:52.282Z,3.52
2022-11-24T04:09:19.270Z,3.57
2022-11-24T04:12:05.073Z,3.48
2022-11-24T04:14:32.316Z,3.46
2022-11-24T04:16:59.870Z,3.44
2022-11-24T04:19:27.854Z,3.46
2022-11-24T04:21:55.032Z,3.44
2022-11-24T04:24:22.316Z,3.34
2022-11-24T04:26:49.335Z,3.46
2022-11-24T04:29:16.297Z,3.42
2022-11-24T04:31:43.679Z,3.33
2022-11-24T04:34:11.406Z,3.33
2022-11-24T04:36:40.998Z,3.44
2022-11-24T04:39:24.086Z,3.35
2022-11-24T04:41:53.177Z,3.34
2022-11-24T04:44:20.515Z,3.44
2022-11-24T04:46:47.623Z,3.45
2022-11-24T04:49:14.752Z,3.53
2022-11-24T04:51:42.456Z,3.41
2022-11-24T04:54:13.879Z,3.55
2022-11-24T04:56:41.761Z,3.56
2022-11-24T04:59:13.626Z,3.59
2022-11-24T05:01:45.086Z,3.46
2022-11-24T05:04:14.579Z,3.59
2022-11-24T05:06:41.924Z,3.55
2022-11-24T05:09:16.098Z,3.48
2022-11-24T05:11:44.433Z,3.52
2022-11-24T05:14:11.427Z,3.58
2022-11-24T05:16:38.455Z,3.45
2022-11-24T05:19:05.738Z,3.33
2022-11-24T05:21:32.767Z,3.41
2022-11-24T05:23:59.772Z,3.34
2022-11-24T05:26:27.466Z,3.29
2022-11-24T05:28:54.476Z,3.31
2022-11-24T05:31:21.509Z,3.33
2022-11-24T05:33:49.058Z,3.39
2022-11-24T05:36:54.483Z,3.34
2022-11-24T05:39:21.900Z,3.36
2022-11-24T05:41:48.911Z,3.34
2022-11-24T05:44:15.888Z,3.28
2022-11-24T05:46:43.231Z,3.36
2022-11-24T05:49:10.260Z,3.37
2022-11-24T05:51:37.437Z,3.37
2022-11-24T05:54:04.779Z,3.36
2022-11-24T05:56:31.767Z,3.40
2022-11-24T05:58:58.774Z,3.42
2022-11-24T06:01:26.116Z,3.44
2022-11-24T06:03:53.415Z,3.42
2022-11-24T06:06:20.495Z,3.40
2022-11-24T06:08:47.530Z,3.43
2022-11-24T06:11:17.663Z,3.46
2022-11-24T06:13:46.694Z,3.47
2022-11-24T06:16:14.894Z,3.45
2022-11-24T06:18:42.433Z,3.37
2022-11-24T06:21:11.286Z,3.42
2022-11-24T06:23:39.405Z,3.42
2022-11-24T06:26:06.926Z,3.38
2022-11-24T06:28:33.923Z,3.40
2022-11-24T06:31:05.090Z,3.43
2022-11-24T06:33:37.134Z,3.43
2022-11-24T06:36:07.367Z,3.47
2022-11-24T06:38:36.147Z,3.53
2022-11-24T06:41:06.382Z,3.55
2022-11-24T06:43:34.626Z,3.48
2022-11-24T06:46:02.679Z,3.53
2022-11-24T06:48:30.255Z,3.56
2022-11-24T06:51:02.254Z,3.56
2022-11-24T06:53:37.769Z,3.70
2022-11-24T06:56:12.161Z,3.88
2022-11-24T06:58:43.362Z,3.95
2022-11-24T07:01:17.927Z,3.84
2022-11-24T07:03:45.547Z,3.88
2022-11-24T07:06:12.630Z,3.98
2022-11-24T07:08:39.694Z,4.09
2022-11-24T07:11:08.714Z,4.14
2022-11-24T07:13:35.969Z,5.55
2022-11-24T07:16:14.779Z,8.67
2022-11-24T07:18:43.597Z,10.75
2022-11-24T07:21:11.274Z,12.47
2022-11-24T07:23:38.453Z,13.13
2022-11-24T07:26:07.709Z,13.54
2022-11-24T07:28:36.839Z,13.41
2022-11-24T07:31:08.664Z,11.74
2022-11-24T07:33:36.412Z,10.01
2022-11-24T07:36:05.292Z,8.13
2022-11-24T07:38:33.326Z,7.57
2022-11-24T07:41:10.070Z,7.04
2022-11-24T07:43:38.331Z,6.35
2022-11-24T07:46:08.583Z,6.11
2022-11-24T07:48:35.655Z,5.98
2022-11-24T07:51:04.588Z,5.75
2022-11-24T07:53:32.846Z,5.59
2022-11-24T07:56:01.827Z,5.58
2022-11-24T07:58:32.855Z,5.27
2022-11-24T08:01:09.590Z,5.34
2022-11-24T08:03:37.302Z,5.38
2022-11-24T08:08:51.736Z,5.34
2022-11-24T08:11:18.800Z,5.41
2022-11-24T08:13:46.015Z,5.36
2022-11-24T08:16:15.713Z,5.25
2022-11-24T08:18:43.733Z,5.25
2022-11-24T08:21:14.487Z,5.19
2022-11-24T08:23:42.021Z,5.33
2022-11-24T08:26:13.836Z,5.26
2022-11-24T08:28:40.908Z,5.21
2022-11-24T08:31:14.034Z,5.20
2022-11-24T08:33:41.965Z,5.29
2022-11-24T08:36:14.130Z,5.28
2022-11-24T08:38:41.834Z,5.26
2022-11-24T08:41:11.724Z,5.38
2022-11-24T08:43:39.209Z,5.31
2022-11-24T08:46:09.065Z,5.37
2022-11-24T08:48:37.161Z,5.39
2022-11-24T08:51:13.075Z,5.47
2022-11-24T08:53:40.868Z,5.58
2022-11-24T08:56:09.287Z,5.61
2022-11-24T08:58:37.346Z,5.58
2022-11-24T09:01:16.102Z,5.40
2022-11-24T09:03:50.352Z,5.51
2022-11-24T09:06:19.614Z,5.33
2022-11-24T09:08:46.926Z,5.36
2022-11-24T09:11:15.232Z,5.18
2022-11-24T09:13:43.304Z,5.24
2022-11-24T09:16:15.843Z,5.28
2022-11-24T09:18:43.228Z,5.20
2022-11-24T09:21:19.339Z,5.16
2022-11-24T09:23:48.845Z,5.30
2022-11-24T09:26:19.222Z,5.22
2022-11-24T09:28:47.176Z,5.16
2022-11-24T09:31:17.348Z,5.17
2022-11-24T09:33:45.527Z,5.10
2022-11-24T09:36:13.439Z,5.15
2022-11-24T09:38:41.194Z,5.03
2022-11-24T09:41:17.563Z,5.05
2022-11-24T09:43:58.713Z,5.14
2022-11-24T09:46:36.086Z,5.05
2022-11-24T09:49:06.151Z,5.08
2022-11-24T09:51:34.073Z,5.06
2022-11-24T09:54:09.548Z,5.24
2022-11-24T09:56:40.706Z,5.31
2022-11-24T09:59:14.233Z,5.44
2022-11-24T10:01:43.528Z,5.50
2022-11-24T10:04:27.747Z,5.59
2022-11-24T10:07:27.940Z,5.75
2022-11-24T10:09:58.805Z,5.66
2022-11-24T10:13:11.222Z,5.73
2022-11-24T10:15:56.766Z,5.75
2022-11-24T10:18:56.242Z,5.85
2022-11-24T10:22:16.001Z,5.76
2022-11-24T10:25:07.949Z,5.87
2022-11-24T10:27:44.490Z,5.97
2022-11-24T10:30:21.095Z,6.16
2022-11-24T10:32:54.184Z,6.37
2022-11-24T10:35:27.733Z,6.40
2022-11-24T10:38:06.605Z,6.57
2022-11-24T10:40:56.653Z,6.70
2022-11-24T10:43:27.974Z,6.85
2022-11-24T10:46:05.545Z,7.05
2022-11-24T10:48:40.795Z,7.02
2022-11-24T10:51:58.065Z,7.07
2022-11-24T10:54:25.428Z,7.14
2022-11-24T10:56:54.023Z,7.23
2022-11-24T10:59:27.707Z,7.29
2022-11-24T11:01:55.831Z,7.30
2022-11-24T11:04:27.842Z,7.20
2022-11-24T11:07:21.345Z,7.14
2022-11-24T11:09:49.118Z,7.20
2022-11-24T11:15:43.462Z,7.29
2022-11-24T11:18:16.472Z,7.36
2022-11-24T11:20:58.382Z,7.51
2022-11-24T11:23:28.553Z,7.61
2022-11-24T11:26:31.549Z,7.63
2022-11-24T11:34:49.256Z,7.60
2022-11-24T11:37:18.140Z,7.59
2022-11-24T11:39:50.653Z,7.41
2022-11-24T11:43:00.024Z,7.29
2022-11-24T11:45:29.342Z,7.31
2022-11-24T11:48:03.260Z,7.32
2022-11-24T11:51:06.519Z,7.27
2022-11-24T11:54:31.047Z,7.27
2022-11-24T11:57:03.829Z,7.27
2022-11-24T11:59:52.231Z,7.35
2022-11-24T12:02:19.380Z,7.32
2022-11-24T12:04:57.207Z,7.24
2022-11-24T12:07:51.993Z,7.24
2022-11-24T12:10:37.486Z,7.26
2022-11-24T12:13:04.483Z,7.20
2022-11-24T12:15:53.858Z,7.18
2022-11-24T12:18:48.520Z,7.18
2022-11-24T12:21:24.641Z,7.19
2022-11-24T12:24:21.587Z,7.25
2022-11-24T12:27:23.338Z,7.25
2022-11-24T12:30:09.633Z,7.28
2022-11-24T12:33:15.380Z,7.38
2022-11-24T12:35:48.792Z,7.44
2022-11-24T12:38:16.141Z,7.55
2022-11-24T12:41:39.689Z,7.51
2022-11-24T12:43:55.715Z,7.58
2022-11-24T12:46:34.847Z,7.49
2022-11-24T12:49:15.305Z,7.51
2022-11-24T12:51:58.125Z,7.33
2022-11-24T12:54:29.472Z,7.26
2022-11-24T12:57:15.974Z,7.21
2022-11-24T12:59:46.438Z,7.06
2022-11-24T13:02:25.853Z,6.99
2022-11-24T13:05:08.461Z,6.94
2022-11-24T13:07:56.107Z,6.84
2022-11-24T13:10:40.104Z,6.79
2022-11-24T13:13:12.569Z,6.78
2022-11-24T13:16:34.461Z,6.80
2022-11-24T13:18:51.363Z,6.82
2022-11-24T13:21:27.791Z,6.84
2022-11-24T13:23:58.431Z,6.77
2022-11-24T13:26:32.388Z,6.85
2022-11-24T13:29:13.454Z,6.77
2022-11-24T13:31:51.565Z,6.88
2022-11-24T13:34:43.313Z,6.91
2022-11-24T13:37:39.859Z,6.87
2022-11-24T13:40:13.407Z,6.82
2022-11-24T13:43:01.368Z,6.88
2022-11-24T13:45:41.646Z,6.75
2022-11-24T13:48:21.983Z,6.82
2022-11-24T13:50:49.642Z,6.77
2022-11-24T13:53:28.913Z,6.75
2022-11-24T13:56:03.453Z,6.76
2022-11-24T13:58:38.968Z,6.67
2022-11-24T14:01:26.130Z,6.64
2022-11-24T14:04:28.206Z,6.69
2022-11-24T14:06:52.259Z,6.80
2022-11-24T14:09:41.571Z,6.80
2022-11-24T14:12:15.925Z,6.72
2022-11-24T14:14:45.503Z,6.77
2022-11-24T14:17:28.621Z,6.78
2022-11-24T14:19:57.544Z,6.64
2022-11-24T14:22:31.934Z,6.58
2022-11-24T14:25:01.402Z,6.53
2022-11-24T14:27:35.901Z,6.49
2022-11-24T14:30:17.979Z,6.40
2022-11-24T14:32:59.193Z,6.47
2022-11-24T14:35:26.547Z,6.52
2022-11-24T14:37:54.131Z,6.46
2022-11-24T14:40:49.129Z,6.32
2022-11-24T14:43:33.099Z,6.34
2022-11-24T14:46:07.266Z,6.47
2022-11-24T14:48:39.775Z,6.41
2022-11-24T14:51:14.941Z,6.42
2022-11-24T14:53:44.996Z,6.48
2022-11-24T14:56:32.873Z,6.30
2022-11-24T14:59:00.820Z,6.27
2022-11-24T15:01:32.643Z,6.21
2022-11-24T15:04:26.488Z,6.12
2022-11-24T15:07:13.361Z,6.03
2022-11-24T15:09:51.794Z,5.98
2022-11-24T15:12:28.823Z,5.93
2022-11-24T15:15:18.286Z,5.82
2022-11-24T15:17:48.393Z,5.62
2022-11-24T15:20:26.863Z,5.62
2022-11-24T15:23:12.244Z,5.61
2022-11-24T15:25:39.854Z,5.46
2022-11-24T15:28:08.581Z,5.52
2022-11-24T15:30:36.800Z,5.35
2022-11-24T15:33:15.951Z,5.32
2022-11-24T15:35:43.726Z,5.30
2022-11-24T15:38:11.089Z,5.20
2022-11-24T15:40:39.402Z,5.21
2022-11-24T15:43:21.359Z,5.08
2022-11-24T15:45:48.960Z,5.07
2022-11-24T15:48:18.223Z,5.09
2022-11-24T15:50:47.012Z,5.11
2022-11-24T15:53:27.336Z,5.07
2022-11-24T15:55:56.396Z,4.97
2022-11-24T15:58:23.958Z,4.98
2022-11-24T16:00:53.466Z,4.82
2022-11-24T16:06:23.614Z,4.89
2022-11-24T16:08:51.999Z,4.90
2022-11-24T16:11:19.146Z,4.85
2022-11-24T16:13:51.945Z,4.75
2022-11-24T16:16:20.716Z,4.76
2022-11-24T16:18:48.339Z,4.75
2022-11-24T16:21:15.449Z,4.60
2022-11-24T16:23:42.844Z,4.62
2022-11-24T16:26:10.212Z,4.57
2022-11-24T16:28:37.289Z,4.46
2022-11-24T16:31:04.677Z,4.60
2022-11-24T16:33:31.828Z,4.47
2022-11-24T16:35:58.858Z,4.49
2022-11-24T16:38:26.165Z,4.43
2022-11-24T16:40:54.707Z,4.32
2022-11-24T16:43:22.111Z,4.33
2022-11-24T16:46:03.188Z,4.32
2022-11-24T16:48:35.573Z,4.28
2022-11-24T16:51:13.526Z,4.28
2022-11-24T16:53:41.202Z,4.27
2022-11-24T16:56:09.196Z,4.23
2022-11-24T16:58:40.620Z,4.20
2022-11-24T17:01:12.668Z,4.21
2022-11-24T17:03:40.653Z,4.13
2022-11-24T17:06:11.438Z,4.06
2022-11-24T17:08:40.683Z,4.10
2022-11-24T17:11:10.981Z,4.00
2022-11-24T17:13:38.949Z,3.98
2022-11-24T17:16:07.611Z,3.85
2022-11-24T17:18:35.437Z,3.83
2022-11-24T17:21:07.843Z,3.84
2022-11-24T17:23:38.082Z,3.72
2022-11-24T17:26:07.599Z,3.78
2022-11-24T17:28:35.709Z,3.63
2022-11-24T17:31:29.796Z,3.62
2022-11-24T17:33:58.451Z,3.61
2022-11-24T17:36:26.803Z,3.67
2022-11-24T17:38:54.415Z,3.68
2022-11-24T17:41:22.377Z,3.74
2022-11-24T17:43:50.597Z,3.78
2022-11-24T17:46:18.185Z,3.67
2022-11-24T17:48:46.953Z,3.70
2022-11-24T17:51:16.979Z,3.64
2022-11-24T17:53:46.704Z,3.71
2022-11-24T17:56:18.381Z,3.67
2022-11-24T17:58:45.903Z,3.63
2022-11-24T18:01:13.514Z,3.59
2022-11-24T18:03:41.742Z,3.52
2022-11-24T18:06:14.065Z,3.59
2022-11-24T18:08:43.764Z,3.60
2022-11-24T18:11:18.054Z,3.65
2022-11-24T18:13:58.565Z,3.66
2022-11-24T18:16:28.322Z,3.58
2022-11-24T18:19:07.940Z,3.71
2022-11-24T18:21:38.171Z,3.65
2022-11-24T18:24:06.779Z,3.55
2022-11-24T18:26:34.339Z,3.47
2022-11-24T18:29:01.413Z,3.49
2022-11-24T18:31:29.728Z,3.43
2022-11-24T18:33:56.977Z,3.40
2022-11-24T18:36:29.979Z,3.41
2022-11-24T18:39:03.112Z,3.29
2022-11-24T18:41:30.245Z,3.32
2022-11-24T18:43:57.576Z,3.35
2022-11-24T18:46:25.201Z,3.36
2022-11-24T18:48:53.176Z,3.27
2022-11-24T18:51:22.700Z,3.29
2022-11-24T18:53:54.348Z,3.26
2022-11-24T18:56:21.794Z,3.12
2022-11-24T18:58:53.343Z,3.17
2022-11-24T19:01:26.246Z,3.20
2022-11-24T19:03:58.511Z,3.18
2022-11-24T19:06:34.506Z,3.17
2022-11-24T19:09:07.262Z,3.09
2022-11-24T19:11:37.112Z,2.98
2022-11-24T19:14:06.531Z,3.07
2022-11-24T19:16:33.962Z,2.96
2022-11-24T19:19:02.665Z,3.03
2022-11-24T19:21:31.565Z,3.01
2022-11-24T19:24:04.514Z,2.93
2022-11-24T19:26:35.021Z,2.95
2022-11-24T19:29:03.406Z,2.96
2022-11-24T19:31:30.697Z,2.92
2022-11-24T19:33:59.712Z,2.86
2022-11-24T19:36:27.127Z,2.81
2022-11-24T19:38:56.219Z,2.82
2022-11-24T19:41:26.443Z,2.84
2022-11-24T19:43:53.797Z,2.92
2022-11-24T19:46:22.377Z,2.89
2022-11-24T19:48:51.135Z,2.96
2022-11-24T19:51:20.628Z,3.07
2022-11-24T19:53:48.095Z,3.12
2022-11-24T19:56:18.619Z,3.23
2022-11-24T19:58:46.498Z,3.28
2022-11-24T20:01:14.704Z,3.31
2022-11-24T20:03:43.414Z,3.31
2022-11-24T20:06:12.387Z,3.38
2022-11-24T20:08:40.491Z,3.35
2022-11-24T20:11:10.330Z,3.39
2022-11-24T20:13:39.115Z,3.49
2022-11-24T20:16:14.501Z,3.47
2022-11-24T20:18:44.834Z,3.41
2022-11-24T20:21:18.102Z,3.42
2022-11-24T20:23:46.941Z,3.43
2022-11-24T20:26:20.106Z,3.43
2022-11-24T20:28:47.642Z,3.36
2022-11-24T20:31:18.367Z,3.38
2022-11-24T20:33:46.336Z,3.41
2022-11-24T20:36:19.907Z,3.38
2022-11-24T20:38:48.034Z,3.38
2022-11-24T20:41:19.098Z,3.23
2022-11-24T20:43:47.812Z,3.15
2022-11-24T20:46:20.712Z,3.19
2022-11-24T20:48:48.336Z,3.05
2022-11-24T20:51:21.420Z,2.94
2022-11-24T20:53:55.973Z,2.89
2022-11-24T20:56:27.551Z,2.93
2022-11-24T20:58:55.849Z,3.00
2022-11-24T21:01:34.888Z,3.00
2022-11-24T21:04:02.925Z,3.04
2022-11-24T21:06:30.766Z,3.02
2022-11-24T21:09:03.406Z,2.97
2022-11-24T21:11:32.363Z,2.93
2022-11-24T21:14:00.296Z,2.85
2022-11-24T21:16:30.309Z,2.77
2022-11-24T21:19:00.184Z,2.81
2022-11-24T21:21:34.561Z,2.75
2022-11-24T21:24:07.043Z,2.80
2022-11-24T21:26:38.004Z,2.72
2022-11-24T21:29:06.703Z,2.81
2022-11-24T21:31:38.345Z,2.77
2022-11-24T21:34:07.463Z,2.73
2022-11-24T21:36:35.798Z,2.63
2022-11-24T21:39:04.125Z,2.61
2022-11-24T21:41:32.977Z,2.61
2022-11-24T21:44:00.094Z,2.53
2022-11-24T21:46:29.065Z,2.55
2022-11-24T21:48:56.402Z,2.58
2022-11-24T21:51:23.568Z,2.54
2022-11-24T21:53:50.709Z,2.53
2022-11-24T21:56:20.555Z,2.51
2022-11-24T21:58:50.153Z,2.40
2022-11-24T22:01:19.290Z,2.42
2022-11-24T22:03:46.893Z,2.50
2022-11-24T22:06:15.471Z,2.56
2022-11-24T22:08:42.503Z,2.51
2022-11-24T22:11:21.687Z,2.51
2022-11-24T22:13:49.620Z,2.45
2022-11-24T22:16:19.604Z,2.40
2022-11-24T22:18:47.700Z,2.55
2022-11-24T22:21:24.074Z,2.48
2022-11-24T22:23:54.925Z,2.47
2022-11-24T22:26:24.424Z,2.53
2022-11-24T22:28:53.274Z,2.54
2022-11-24T22:31:25.885Z,2.62
2022-11-24T22:33:54.620Z,2.62
2022-11-24T22:36:24.335Z,2.58
2022-11-24T22:38:56.572Z,2.66
2022-11-24T22:41:25.008Z,2.54
2022-11-24T22:43:52.363Z,2.53
2022-11-24T22:46:22.103Z,2.49
2022-11-24T22:48:52.829Z,2.52
2022-11-24T22:51:32.414Z,2.47
2022-11-24T22:54:02.626Z,2.57
2022-11-24T22:56:32.335Z,2.57
2022-11-24T22:59:01.158Z,2.66
2022-11-24T23:01:29.335Z,2.51
2022-11-24T23:03:56.633Z,2.58
2022-11-24T23:06:26.290Z,2.56
2022-11-24T23:08:54.050Z,2.51
2022-11-24T23:11:40.873Z,2.46
2022-11-24T23:14:13.286Z,2.65
2022-11-24T23:16:40.359Z,2.55
2022-11-24T23:19:07.857Z,2.54
2022-11-24T23:21:38.350Z,2.51
2022-11-24T23:24:06.658Z,2.55
2022-11-24T23:26:40.026Z,2.44
2022-11-24T23:29:08.176Z,2.53
2022-11-24T23:31:36.268Z,2.46
2022-11-24T23:34:04.023Z,2.47
2022-11-24T23:36:32.309Z,2.54
2022-11-24T23:39:08.647Z,2.67
2022-11-24T23:41:35.750Z,2.62
2022-11-24T23:44:03.568Z,2.58
2022-11-24T23:46:31.020Z,2.57
2022-11-24T23:48:58.452Z,2.67
2022-11-24T23:51:30.943Z,2.69
2022-11-24T23:53:59.538Z,2.67
2022-11-24T23:56:32.450Z,2.58
2022-11-24T23:59:00.842Z,2.52
